createdAt,value
2017-11-18T00:00:48.921Z,7.50
2017-11-18T00:03:19.185Z,6.93
2017-11-18T00:05:47.666Z,7.17
2017-11-18T00:08:16.332Z,7.10
2017-11-18T00:10:44.719Z,7.00
2017-11-18T00:13:13.413Z,6.50
2017-11-18T00:15:41.801Z,6.70
2017-11-18T00:18:10.068Z,6.47
2017-11-18T00:20:38.591Z,7.00
2017-11-18T00:23:06.945Z,6.07
2017-11-18T00:25:35.972Z,7.63
2017-11-18T00:28:06.069Z,6.90
2017-11-18T00:30:34.981Z,7.60
2017-11-18T00:33:04.013Z,7.30
2017-11-18T00:35:32.353Z,6.40
2017-11-18T00:38:00.781Z,7.30
2017-11-18T00:40:29.619Z,6.97
2017-11-18T00:42:58.182Z,6.13
2017-11-18T00:45:26.751Z,6.40
2017-11-18T00:47:55.233Z,6.20
2017-11-18T00:50:23.608Z,6.43
2017-11-18T00:52:51.897Z,6.87
2017-11-18T00:55:20.334Z,6.70
2017-11-18T00:57:48.670Z,7.03
2017-11-18T01:00:17.480Z,6.40
2017-11-18T01:02:45.805Z,7.20
2017-11-18T01:05:14.369Z,6.10
2017-11-18T01:07:42.737Z,6.17
2017-11-18T01:10:11.125Z,6.83
2017-11-18T01:12:39.448Z,7.20
2017-11-18T01:15:07.760Z,5.80
2017-11-18T01:17:36.161Z,5.73
2017-11-18T01:20:04.500Z,5.97
2017-11-18T01:22:32.816Z,6.40
2017-11-18T01:25:01.527Z,6.07
2017-11-18T01:27:29.928Z,6.10
2017-11-18T01:29:58.297Z,6.23
2017-11-18T01:32:26.676Z,5.60
2017-11-18T01:34:55.014Z,5.70
2017-11-18T01:37:23.349Z,6.00
2017-11-18T01:39:51.654Z,5.80
2017-11-18T01:42:20.153Z,5.60
2017-11-18T01:44:48.529Z,5.20
2017-11-18T01:47:16.861Z,5.60
2017-11-18T01:49:45.193Z,5.67
2017-11-18T01:52:13.571Z,5.60
2017-11-18T01:54:42.033Z,5.47
2017-11-18T01:57:10.376Z,4.87
2017-11-18T01:59:38.704Z,5.23
2017-11-18T02:02:10.484Z,4.80
2017-11-18T02:04:38.889Z,5.13
2017-11-18T02:07:07.193Z,5.07
2017-11-18T02:09:35.700Z,6.23
2017-11-18T02:12:04.093Z,4.80
2017-11-18T02:14:32.444Z,4.80
2017-11-18T02:17:00.926Z,5.10
2017-11-18T02:19:29.271Z,4.83
2017-11-18T02:21:57.630Z,5.13
2017-11-18T02:24:29.713Z,4.80
2017-11-18T02:26:58.052Z,5.03
2017-11-18T02:29:26.344Z,5.67
2017-11-18T02:31:54.757Z,4.20
2017-11-18T02:34:23.122Z,5.23
2017-11-18T02:36:51.530Z,4.30
2017-11-18T02:39:19.860Z,4.77
2017-11-18T02:41:48.313Z,5.53
2017-11-18T02:44:16.764Z,5.00
2017-11-18T02:46:45.069Z,4.80
2017-11-18T02:49:13.616Z,4.57
2017-11-18T02:51:41.968Z,4.80
2017-11-18T02:54:10.313Z,4.60
2017-11-18T02:56:38.646Z,4.90
2017-11-18T02:59:06.991Z,4.47
2017-11-18T03:01:35.412Z,4.37
2017-11-18T03:04:03.713Z,4.23
2017-11-18T03:06:32.157Z,4.57
2017-11-18T03:09:00.449Z,4.30
2017-11-18T03:11:28.905Z,4.40
2017-11-18T03:13:57.300Z,4.10
2017-11-18T03:16:25.766Z,3.97
2017-11-18T03:18:54.137Z,4.47
2017-11-18T03:21:22.600Z,4.40
2017-11-18T03:23:50.903Z,3.93
2017-11-18T03:26:19.233Z,4.00
2017-11-18T03:28:47.708Z,4.27
2017-11-18T03:31:16.036Z,4.33
2017-11-18T03:33:44.384Z,3.87
2017-11-18T03:36:12.853Z,3.80
2017-11-18T03:38:41.132Z,4.60
2017-11-18T03:41:09.588Z,3.80
2017-11-18T03:43:38.073Z,3.63
2017-11-18T03:46:06.477Z,3.70
2017-11-18T03:48:34.781Z,3.70
2017-11-18T03:51:03.477Z,4.07
2017-11-18T03:53:31.883Z,3.80
2017-11-18T03:58:35.137Z,3.23
2017-11-18T04:01:03.522Z,3.90
2017-11-18T04:03:35.346Z,3.87
2017-11-18T04:06:03.670Z,3.90
2017-11-18T04:08:32.013Z,3.50
2017-11-18T04:11:04.607Z,3.77
2017-11-18T04:13:33.065Z,3.10
2017-11-18T04:16:01.397Z,3.67
2017-11-18T04:18:32.659Z,3.40
2017-11-18T04:21:07.153Z,3.87
2017-11-18T04:23:38.669Z,3.67
2017-11-18T04:26:07.047Z,3.70
2017-11-18T04:28:35.427Z,3.30
2017-11-18T04:31:03.873Z,3.20
2017-11-18T04:33:32.189Z,3.70
2017-11-18T04:36:00.533Z,3.60
2017-11-18T04:38:28.856Z,3.40
2017-11-18T04:40:57.210Z,3.33
2017-11-18T04:43:25.502Z,3.17
2017-11-18T04:45:53.866Z,3.53
2017-11-18T04:48:22.129Z,3.70
2017-11-18T04:50:50.686Z,3.17
2017-11-18T04:53:19.389Z,3.50
2017-11-18T04:55:47.696Z,3.57
2017-11-18T04:58:16.045Z,3.43
2017-11-18T05:00:44.426Z,3.07
2017-11-18T05:03:12.922Z,3.37
2017-11-18T05:05:41.278Z,3.37
2017-11-18T05:08:09.648Z,3.20
2017-11-18T05:10:38.073Z,3.10
2017-11-18T05:13:06.528Z,3.60
2017-11-18T05:15:34.923Z,2.90
2017-11-18T05:18:03.305Z,3.30
2017-11-18T05:20:31.809Z,3.40
2017-11-18T05:23:00.329Z,2.93
2017-11-18T05:25:28.652Z,3.57
2017-11-18T05:27:57.006Z,3.00
2017-11-18T05:30:25.726Z,3.50
2017-11-18T05:32:54.136Z,3.20
2017-11-18T05:35:22.480Z,2.97
2017-11-18T05:37:50.903Z,3.57
2017-11-18T05:40:25.602Z,2.60
2017-11-18T05:42:53.898Z,3.00
2017-11-18T05:45:22.204Z,3.07
2017-11-18T05:47:51.764Z,3.07
2017-11-18T05:50:20.111Z,2.80
2017-11-18T05:52:48.578Z,3.43
2017-11-18T05:55:17.153Z,3.03
2017-11-18T05:57:46.333Z,3.20
2017-11-18T06:00:14.854Z,3.20
2017-11-18T06:02:43.268Z,2.77
2017-11-18T06:05:11.644Z,3.53
2017-11-18T06:07:40.284Z,2.77
2017-11-18T06:10:08.674Z,2.87
2017-11-18T06:12:36.968Z,2.80
2017-11-18T06:15:05.405Z,2.67
2017-11-18T06:17:33.802Z,2.97
2017-11-18T06:20:02.138Z,3.27
2017-11-18T06:22:30.588Z,3.27
2017-11-18T06:24:59.450Z,2.70
2017-11-18T06:27:28.240Z,2.60
2017-11-18T06:29:56.573Z,3.03
2017-11-18T06:32:25.101Z,2.73
2017-11-18T06:34:53.580Z,2.40
2017-11-18T06:37:21.927Z,2.77
2017-11-18T06:39:50.230Z,2.60
2017-11-18T06:42:18.833Z,2.53
2017-11-18T06:44:47.249Z,2.87
2017-11-18T06:47:15.696Z,2.93
2017-11-18T06:49:44.030Z,3.10
2017-11-18T06:52:12.440Z,2.67
2017-11-18T06:54:43.572Z,2.43
2017-11-18T06:57:12.008Z,2.50
2017-11-18T06:59:40.583Z,2.50
2017-11-18T07:02:09.033Z,2.70
2017-11-18T07:04:37.354Z,2.50
2017-11-18T07:07:05.749Z,2.43
2017-11-18T07:09:34.024Z,2.40
2017-11-18T07:12:02.344Z,2.60
2017-11-18T07:14:30.926Z,2.33
2017-11-18T07:16:59.315Z,1.70
2017-11-18T07:19:27.726Z,2.67
2017-11-18T07:21:56.210Z,2.27
2017-11-18T07:24:24.626Z,2.00
2017-11-18T07:26:53.071Z,2.70
2017-11-18T07:29:21.593Z,2.50
2017-11-18T07:31:49.949Z,3.00
2017-11-18T07:34:18.238Z,2.47
2017-11-18T07:36:46.620Z,3.27
2017-11-18T07:39:15.253Z,3.00
2017-11-18T07:41:43.822Z,3.73
2017-11-18T07:44:12.225Z,3.47
2017-11-18T07:46:40.769Z,4.00
2017-11-18T07:49:09.138Z,3.33
2017-11-18T07:51:37.546Z,2.90
2017-11-18T07:54:06.127Z,3.17
2017-11-18T07:56:34.464Z,3.00
2017-11-18T07:59:02.942Z,2.40
2017-11-18T08:01:31.365Z,2.60
2017-11-18T08:03:59.748Z,3.23
2017-11-18T08:06:28.384Z,2.73
2017-11-18T08:08:56.737Z,3.07
2017-11-18T08:11:25.285Z,2.63
2017-11-18T08:13:53.660Z,2.80
2017-11-18T08:16:21.982Z,2.87
2017-11-18T08:18:50.413Z,2.47
2017-11-18T08:21:18.751Z,3.03
2017-11-18T08:23:47.065Z,2.40
2017-11-18T08:26:15.409Z,2.30
2017-11-18T08:28:43.736Z,2.47
2017-11-18T08:31:12.731Z,2.30
2017-11-18T08:33:41.074Z,2.30
2017-11-18T08:36:18.361Z,2.50
2017-11-18T08:38:46.712Z,2.23
2017-11-18T08:41:15.041Z,3.20
2017-11-18T08:43:43.425Z,2.50
2017-11-18T08:46:12.593Z,2.40
2017-11-18T08:48:40.906Z,2.30
2017-11-18T08:51:09.274Z,2.50
2017-11-18T08:53:38.121Z,2.30
2017-11-18T08:56:06.866Z,2.53
2017-11-18T08:58:35.180Z,2.57
2017-11-18T09:01:03.691Z,2.47
2017-11-18T09:03:32.021Z,2.53
2017-11-18T09:06:00.332Z,2.70
2017-11-18T09:08:28.649Z,2.57
2017-11-18T09:10:57.118Z,2.20
2017-11-18T09:13:25.439Z,2.07
2017-11-18T09:15:53.790Z,2.30
2017-11-18T09:18:22.349Z,2.43
2017-11-18T09:20:50.797Z,2.07
2017-11-18T09:23:19.088Z,2.60
2017-11-18T09:25:47.411Z,2.77
2017-11-18T09:28:15.715Z,2.80
2017-11-18T09:30:44.221Z,2.63
2017-11-18T09:33:12.533Z,3.03
2017-11-18T09:35:42.207Z,2.40
2017-11-18T09:38:13.783Z,2.40
2017-11-18T09:40:42.721Z,2.50
2017-11-18T09:43:11.072Z,2.63
2017-11-18T09:45:40.365Z,2.77
2017-11-18T09:48:08.628Z,2.00
2017-11-18T09:50:37.073Z,2.93
2017-11-18T09:53:05.361Z,2.27
2017-11-18T09:55:33.837Z,2.57
2017-11-18T09:58:02.311Z,2.87
2017-11-18T10:00:30.640Z,2.60
2017-11-18T10:02:58.925Z,2.60
2017-11-18T10:05:27.372Z,2.40
2017-11-18T10:07:56.296Z,2.47
2017-11-18T10:10:24.669Z,2.33
2017-11-18T10:12:52.960Z,2.60
2017-11-18T10:15:21.289Z,2.60
2017-11-18T10:17:49.712Z,2.53
2017-11-18T10:20:18.039Z,2.27
2017-11-18T10:22:46.438Z,2.47
2017-11-18T10:25:14.757Z,2.30
2017-11-18T10:27:43.241Z,1.93
2017-11-18T10:30:12.757Z,2.50
2017-11-18T10:32:41.237Z,2.50
2017-11-18T10:35:09.540Z,2.10
2017-11-18T10:37:38.024Z,2.87
2017-11-18T10:40:06.329Z,2.17
2017-11-18T10:42:34.619Z,2.03
2017-11-18T10:45:02.970Z,1.70
2017-11-18T10:47:31.350Z,2.10
2017-11-18T10:49:59.622Z,2.13
2017-11-18T10:52:28.078Z,1.97
2017-11-18T10:54:56.520Z,2.37
2017-11-18T10:57:25.178Z,2.30
2017-11-18T10:59:53.726Z,2.07
2017-11-18T11:02:23.657Z,1.97
2017-11-18T11:04:52.713Z,1.70
2017-11-18T11:07:21.560Z,2.10
2017-11-18T11:09:52.716Z,1.83
2017-11-18T11:12:21.809Z,2.10
2017-11-18T11:14:50.153Z,2.03
2017-11-18T11:17:18.777Z,1.90
2017-11-18T11:19:47.201Z,2.20
2017-11-18T11:22:15.717Z,2.30
2017-11-18T11:24:44.373Z,2.50
2017-11-18T11:27:12.947Z,2.37
2017-11-18T11:29:41.409Z,2.30
2017-11-18T11:32:09.709Z,2.07
2017-11-18T11:34:37.997Z,2.83
2017-11-18T11:37:09.497Z,2.40
2017-11-18T11:39:40.577Z,2.60
2017-11-18T11:42:09.064Z,2.50
2017-11-18T11:44:37.324Z,2.50
2017-11-18T11:47:05.833Z,3.03
2017-11-18T11:49:34.129Z,2.73
2017-11-18T11:52:02.531Z,2.93
2017-11-18T11:54:30.845Z,2.40
2017-11-18T11:56:59.274Z,2.50
2017-11-18T11:59:27.586Z,2.83
2017-11-18T12:01:56.022Z,2.63
2017-11-18T12:04:24.443Z,2.73
2017-11-18T12:06:53.141Z,2.47
2017-11-18T12:09:21.440Z,2.60
2017-11-18T12:11:49.868Z,2.80
2017-11-18T12:14:18.182Z,2.43
2017-11-18T12:16:46.673Z,2.50
2017-11-18T12:19:15.153Z,2.43
2017-11-18T12:21:44.332Z,2.77
2017-11-18T12:24:13.417Z,3.13
2017-11-18T12:26:42.303Z,2.70
2017-11-18T12:29:11.909Z,2.50
2017-11-18T12:31:41.842Z,2.77
2017-11-18T12:34:10.433Z,2.57
2017-11-18T12:36:39.204Z,2.43
2017-11-18T12:39:07.853Z,1.83
2017-11-18T12:41:36.446Z,2.37
2017-11-18T12:44:05.173Z,2.03
2017-11-18T12:46:34.299Z,2.63
2017-11-18T12:49:02.685Z,2.40
2017-11-18T12:51:31.332Z,2.40
2017-11-18T12:54:00.093Z,2.20
2017-11-18T12:56:29.379Z,2.90
2017-11-18T12:58:58.085Z,2.10
2017-11-18T13:01:27.225Z,2.20
2017-11-18T13:03:55.596Z,2.83
2017-11-18T13:06:24.067Z,2.40
2017-11-18T13:08:53.274Z,2.17
2017-11-18T13:11:22.000Z,2.27
2017-11-18T13:13:50.284Z,2.40
2017-11-18T13:16:19.318Z,2.20
2017-11-18T13:18:47.789Z,2.17
2017-11-18T13:21:17.026Z,2.30
2017-11-18T13:23:45.946Z,2.00
2017-11-18T13:26:14.869Z,2.00
2017-11-18T13:28:43.436Z,1.90
2017-11-18T13:31:12.282Z,1.90
2017-11-18T13:33:40.690Z,1.97
2017-11-18T13:36:09.611Z,1.87
2017-11-18T13:38:38.409Z,2.50
2017-11-18T13:41:08.296Z,2.10
2017-11-18T13:43:38.587Z,1.67
2017-11-18T13:46:07.664Z,2.10
2017-11-18T13:48:36.493Z,1.90
2017-11-18T13:51:05.832Z,2.00
2017-11-18T13:53:35.625Z,2.00
2017-11-18T13:56:04.908Z,2.33
2017-11-18T13:58:34.405Z,2.27
2017-11-18T14:01:03.434Z,2.83
2017-11-18T14:03:31.852Z,2.37
2017-11-18T14:06:02.045Z,3.03
2017-11-18T14:08:30.650Z,2.20
2017-11-18T14:10:59.623Z,2.10
2017-11-18T14:13:28.834Z,1.83
2017-11-18T14:16:03.029Z,1.90
2017-11-18T14:18:34.946Z,2.43
2017-11-18T14:21:03.421Z,2.10
2017-11-18T14:23:31.793Z,2.20
2017-11-18T14:26:00.913Z,2.10
2017-11-18T14:28:29.540Z,2.00
2017-11-18T14:30:58.621Z,2.10
2017-11-18T14:33:27.402Z,2.10
2017-11-18T14:35:56.572Z,2.07
2017-11-18T14:38:25.223Z,1.57
2017-11-18T14:40:54.085Z,1.90
2017-11-18T14:43:22.377Z,2.57
2017-11-18T14:45:50.735Z,1.70
2017-11-18T14:48:19.213Z,2.50
2017-11-18T14:50:48.381Z,2.10
2017-11-18T14:53:18.017Z,2.23
2017-11-18T14:55:46.892Z,2.10
2017-11-18T14:58:15.948Z,2.30
2017-11-18T15:00:45.253Z,2.40
2017-11-18T15:03:13.725Z,2.43
2017-11-18T15:05:42.922Z,2.00
2017-11-18T15:08:11.576Z,2.33
2017-11-18T15:10:40.775Z,2.70
2017-11-18T15:13:09.459Z,2.07
2017-11-18T15:15:38.047Z,2.63
2017-11-18T15:18:10.469Z,2.10
2017-11-18T15:20:43.338Z,2.10
2017-11-18T15:23:12.329Z,2.03
2017-11-18T15:26:02.745Z,2.33
2017-11-18T15:28:36.258Z,1.53
2017-11-18T15:31:05.697Z,2.37
2017-11-18T15:33:34.355Z,2.10
2017-11-18T15:36:03.291Z,1.90
2017-11-18T15:38:31.944Z,1.43
2017-11-18T15:41:00.351Z,2.07
2017-11-18T15:43:29.058Z,1.63
2017-11-18T15:45:57.489Z,1.90
2017-11-18T15:48:31.621Z,2.10
2017-11-18T15:51:01.644Z,1.90
2017-11-18T15:53:34.281Z,2.03
2017-11-18T15:56:03.752Z,1.97
2017-11-18T15:58:32.530Z,1.70
2017-11-18T16:01:05.117Z,1.90
2017-11-18T16:03:34.602Z,1.93
2017-11-18T16:06:03.742Z,2.00
2017-11-18T16:08:32.429Z,1.97
2017-11-18T16:11:02.337Z,1.90
2017-11-18T16:13:31.245Z,2.00
2017-11-18T16:16:00.576Z,1.80
2017-11-18T16:18:29.156Z,2.67
2017-11-18T16:20:58.061Z,1.70
2017-11-18T16:23:27.410Z,2.17
2017-11-18T16:25:56.035Z,2.60
2017-11-18T16:28:24.499Z,2.20
2017-11-18T16:30:52.838Z,2.30
2017-11-18T16:33:21.172Z,2.40
2017-11-18T16:35:49.488Z,1.97
2017-11-18T16:38:17.869Z,2.30
2017-11-18T16:40:46.176Z,1.90
2017-11-18T16:43:14.792Z,2.03
2017-11-18T16:45:43.222Z,2.43
2017-11-18T16:48:11.537Z,2.70
2017-11-18T16:50:39.894Z,2.50
2017-11-18T16:53:08.281Z,2.53
2017-11-18T16:55:36.601Z,2.63
2017-11-18T16:58:05.789Z,2.63
2017-11-18T17:00:34.186Z,2.73
2017-11-18T17:03:02.613Z,2.40
2017-11-18T17:05:30.905Z,2.50
2017-11-18T17:07:59.437Z,2.47
2017-11-18T17:10:27.790Z,2.60
2017-11-18T17:12:56.086Z,2.53
2017-11-18T17:15:24.397Z,2.60
2017-11-18T17:17:52.800Z,2.80
2017-11-18T17:20:21.580Z,2.93
2017-11-18T17:22:50.125Z,2.63
2017-11-18T17:25:19.538Z,2.83
2017-11-18T17:27:47.867Z,2.70
2017-11-18T17:30:16.204Z,2.70
2017-11-18T17:32:44.692Z,2.40
2017-11-18T17:35:13.269Z,2.33
2017-11-18T17:37:41.828Z,2.23
2017-11-18T17:40:10.584Z,2.60
2017-11-18T17:42:39.001Z,2.70
2017-11-18T17:45:07.413Z,2.53
2017-11-18T17:47:35.741Z,2.97
2017-11-18T17:50:04.100Z,2.63
2017-11-18T17:52:32.480Z,2.67
2017-11-18T17:55:00.897Z,2.23
2017-11-18T17:57:29.691Z,2.37
2017-11-18T17:59:58.657Z,2.50
2017-11-18T18:02:27.009Z,2.70
2017-11-18T18:04:55.551Z,2.53
2017-11-18T18:07:23.954Z,2.20
2017-11-18T18:09:52.400Z,2.30
2017-11-18T18:12:20.734Z,2.30
2017-11-18T18:14:49.055Z,2.23
2017-11-18T18:17:17.477Z,2.17
2017-11-18T18:19:45.768Z,2.40
2017-11-18T18:22:14.256Z,2.10
2017-11-18T18:24:42.552Z,2.13
2017-11-18T18:27:10.921Z,2.33
2017-11-18T18:29:39.217Z,2.13
2017-11-18T18:32:07.652Z,2.33
2017-11-18T18:34:36.044Z,2.37
2017-11-18T18:37:04.481Z,2.27
2017-11-18T18:39:32.936Z,2.27
2017-11-18T18:42:01.857Z,2.90
2017-11-18T18:44:30.906Z,3.10
2017-11-18T18:47:01.355Z,3.40
2017-11-18T18:49:30.407Z,2.63
2017-11-18T18:51:58.982Z,2.50
2017-11-18T18:54:29.071Z,3.00
2017-11-18T18:56:57.841Z,3.60
2017-11-18T18:59:27.263Z,3.50
2017-11-18T19:01:56.659Z,3.10
2017-11-18T19:04:27.889Z,3.17
2017-11-18T19:06:57.006Z,4.00
2017-11-18T19:09:26.742Z,3.90
2017-11-18T19:11:57.852Z,3.83
2017-11-18T19:14:27.005Z,3.20
2017-11-18T19:16:56.962Z,3.20
2017-11-18T19:19:25.896Z,3.20
2017-11-18T19:21:54.422Z,3.70
2017-11-18T19:24:23.758Z,3.87
2017-11-18T19:26:53.408Z,3.33
2017-11-18T19:29:25.198Z,3.80
2017-11-18T19:31:54.993Z,3.07
2017-11-18T19:34:24.496Z,3.30
2017-11-18T19:36:54.249Z,3.73
2017-11-18T19:39:23.806Z,3.47
2017-11-18T19:41:53.772Z,3.37
2017-11-18T19:44:23.392Z,3.40
2017-11-18T19:46:53.141Z,3.63
2017-11-18T19:49:22.464Z,3.73
2017-11-18T19:51:52.152Z,3.30
2017-11-18T19:54:21.779Z,3.53
2017-11-18T19:56:52.338Z,3.07
2017-11-18T19:59:23.359Z,3.20
2017-11-18T20:01:53.346Z,2.87
2017-11-18T20:04:22.167Z,3.50
2017-11-18T20:09:29.471Z,2.97
2017-11-18T20:11:58.037Z,3.40
2017-11-18T20:14:26.301Z,3.10
2017-11-18T20:16:54.711Z,3.37
2017-11-18T20:19:23.053Z,3.17
2017-11-18T20:21:51.765Z,4.00
2017-11-18T20:24:22.040Z,3.10
2017-11-18T20:26:52.517Z,2.77
2017-11-18T20:29:21.411Z,2.80
2017-11-18T20:31:49.911Z,2.70
2017-11-18T20:34:18.219Z,2.43
2017-11-18T20:36:46.580Z,3.37
2017-11-18T20:39:14.900Z,2.70
2017-11-18T20:41:43.341Z,2.97
2017-11-18T20:44:11.921Z,2.90
2017-11-18T20:46:40.380Z,2.87
2017-11-18T20:49:08.839Z,2.80
2017-11-18T20:51:38.498Z,2.90
2017-11-18T20:54:06.850Z,2.43
2017-11-18T20:56:35.488Z,2.50
2017-11-18T20:59:03.796Z,2.63
2017-11-18T21:01:32.930Z,2.80
2017-11-18T21:04:03.536Z,2.87
2017-11-18T21:06:34.436Z,2.53
2017-11-18T21:09:04.560Z,2.83
2017-11-18T21:11:35.068Z,2.53
2017-11-18T21:14:04.980Z,2.70
2017-11-18T21:16:33.661Z,2.20
2017-11-18T21:19:02.281Z,2.27
2017-11-18T21:21:31.019Z,2.43
2017-11-18T21:23:59.834Z,2.57
2017-11-18T21:26:28.588Z,2.40
2017-11-18T21:28:57.248Z,2.40
2017-11-18T21:31:26.113Z,2.43
2017-11-18T21:33:54.824Z,2.20
2017-11-18T21:36:23.737Z,2.33
2017-11-18T21:38:52.573Z,2.50
2017-11-18T21:41:21.481Z,2.13
2017-11-18T21:43:50.770Z,1.83
2017-11-18T21:46:19.681Z,2.50
2017-11-18T21:48:48.509Z,2.10
2017-11-18T21:51:17.033Z,2.30
2017-11-18T21:53:46.682Z,2.10
2017-11-18T21:56:15.186Z,2.33
2017-11-18T21:58:44.082Z,1.97
2017-11-18T22:01:12.833Z,1.90
2017-11-18T22:03:41.649Z,1.90
2017-11-18T22:06:10.262Z,1.90
2017-11-18T22:08:39.020Z,2.20
2017-11-18T22:11:07.603Z,2.20
2017-11-18T22:13:36.346Z,2.17
2017-11-18T22:16:05.118Z,2.30
2017-11-18T22:18:33.985Z,2.20
2017-11-18T22:21:02.710Z,1.90
2017-11-18T22:23:31.397Z,1.83
2017-11-18T22:26:00.154Z,1.80
2017-11-18T22:28:28.961Z,2.13
2017-11-18T22:30:57.649Z,2.00
2017-11-18T22:33:26.605Z,1.60
2017-11-18T22:35:55.125Z,1.70
2017-11-18T22:38:23.650Z,2.17
2017-11-18T22:40:52.385Z,2.10
2017-11-18T22:43:20.899Z,2.10
2017-11-18T22:45:50.865Z,1.97
2017-11-18T22:48:19.412Z,1.63
2017-11-18T22:50:48.077Z,1.90
2017-11-18T22:53:16.814Z,1.83
2017-11-18T22:55:45.371Z,1.67
2017-11-18T22:58:13.988Z,1.90
2017-11-18T23:00:44.540Z,1.63
2017-11-18T23:03:13.234Z,2.03
2017-11-18T23:05:41.985Z,1.97
2017-11-18T23:08:10.541Z,2.10
2017-11-18T23:10:39.273Z,1.60
2017-11-18T23:13:07.918Z,1.50
2017-11-18T23:15:36.465Z,1.73
2017-11-18T23:18:05.323Z,1.93
2017-11-18T23:20:34.069Z,1.60
2017-11-18T23:23:02.725Z,1.67
2017-11-18T23:25:31.593Z,1.93
2017-11-18T23:28:00.281Z,1.87
2017-11-18T23:30:28.821Z,2.17
2017-11-18T23:32:57.634Z,1.80
2017-11-18T23:35:26.581Z,1.60
2017-11-18T23:37:55.189Z,1.60
2017-11-18T23:40:23.797Z,2.07
2017-11-18T23:42:52.522Z,1.90
2017-11-18T23:45:21.374Z,2.00
2017-11-18T23:47:50.046Z,1.70
2017-11-18T23:50:18.753Z,1.90
2017-11-18T23:52:47.439Z,1.80
2017-11-18T23:55:16.350Z,1.60
2017-11-18T23:57:45.259Z,1.80
